Terminal Aerodrome Forecast
Issued by NWS

Home | Current Version | Previous Version | Text Only | Print | Product List | Glossary On
Versions: 1 2 3 4 5 6 7 8 9 10 11 12 13 14 15 16 17 18 19 20 21 22 23 24 25 26 27 28 29 30 31 32
865
FTUS43 KDLH 262339
TAFBRD
TAF
KBRD 262339Z 2700/2724 30008KT P6SM SCT250
     FM270200 VRB03KT P6SM BKN250
     FM270600 VRB03KT 6SM BR SCT010 BKN060
      TEMPO 2708/2712 2SM BR BKN012
     FM271400 15010KT P6SM VCSH OVC100
     FM271800 01007KT P6SM -RA VCTS OVC070CB=

USA.gov is the U.S. government's official web portal to all federal, state and local government web resources and services.